sensor_id;sensor_type;location;lat;lon;timestamp;pressure;altitude;pressure_sealevel;temperature;humidity
20620;BME280;10469;42.720;23.252;2023-05-08T00:00:28;95047.72;;;12.83;100.00
20620;BME280;10469;42.720;23.252;2023-05-08T00:02:54;95032.06;;;12.79;100.00
20620;BME280;10469;42.720;23.252;2023-05-08T00:05:19;95036.44;;;12.86;100.00
20620;BME280;10469;42.720;23.252;2023-05-08T00:07:45;95019.09;;;12.60;100.00
20620;BME280;10469;42.720;23.252;2023-05-08T00:10:11;95038.25;;;12.80;100.00
20620;BME280;10469;42.720;23.252;2023-05-08T00:12:37;95039.56;;;12.77;100.00
20620;BME280;10469;42.720;23.252;2023-05-08T00:15:03;95031.25;;;12.62;100.00
20620;BME280;10469;42.720;23.252;2023-05-08T00:17:29;95041.03;;;12.68;100.00
20620;BME280;10469;42.720;23.252;2023-05-08T00:19:55;95044.19;;;12.82;100.00
20620;BME280;10469;42.720;23.252;2023-05-08T00:22:21;95037.25;;;12.86;100.00
20620;BME280;10469;42.720;23.252;2023-05-08T00:24:47;95058.72;;;12.98;100.00
20620;BME280;10469;42.720;23.252;2023-05-08T00:27:12;95050.91;;;12.79;100.00
20620;BME280;10469;42.720;23.252;2023-05-08T00:29:38;95057.97;;;13.02;100.00
20620;BME280;10469;42.720;23.252;2023-05-08T00:32:05;95052.03;;;13.00;100.00
20620;BME280;10469;42.720;23.252;2023-05-08T00:34:31;95062.06;;;13.05;100.00
20620;BME280;10469;42.720;23.252;2023-05-08T00:36:57;95053.47;;;13.08;100.00
20620;BME280;10469;42.720;23.252;2023-05-08T00:39:22;95056.69;;;12.71;100.00
20620;BME280;10469;42.720;23.252;2023-05-08T00:41:48;95041.03;;;12.68;100.00
20620;BME280;10469;42.720;23.252;2023-05-08T00:44:14;95060.78;;;12.74;100.00
20620;BME280;10469;42.720;23.252;2023-05-08T00:46:40;95043.56;;;12.75;100.00
20620;BME280;10469;42.720;23.252;2023-05-08T00:49:06;95051.78;;;12.68;100.00
20620;BME280;10469;42.720;23.252;2023-05-08T00:51:34;95062.06;;;12.71;100.00
20620;BME280;10469;42.720;23.252;2023-05-08T00:54:00;95043.41;;;12.31;100.00
20620;BME280;10469;42.720;23.252;2023-05-08T00:56:27;95064.69;;;12.49;100.00
20620;BME280;10469;42.720;23.252;2023-05-08T00:58:54;95069.47;;;12.47;100.00
20620;BME280;10469;42.720;23.252;2023-05-08T01:01:19;95064.09;;;12.47;100.00
20620;BME280;10469;42.720;23.252;2023-05-08T01:03:45;95069.22;;;12.32;100.00
20620;BME280;10469;42.720;23.252;2023-05-08T01:06:11;95075.03;;;12.41;100.00
20620;BME280;10469;42.720;23.252;2023-05-08T01:08:37;95069.56;;;12.36;100.00
20620;BME280;10469;42.720;23.252;2023-05-08T01:11:10;95071.22;;;12.53;100.00
20620;BME280;10469;42.720;23.252;2023-05-08T01:14:14;95072.28;;;12.52;100.00
20620;BME280;10469;42.720;23.252;2023-05-08T01:16:57;95084.03;;;12.35;100.00
20620;BME280;10469;42.720;23.252;2023-05-08T01:30:44;95076.97;;;12.00;100.00
20620;BME280;10469;42.720;23.252;2023-05-08T01:33:22;95071.31;;;11.73;100.00
20620;BME280;10469;42.720;23.252;2023-05-08T01:35:50;95067.56;;;11.86;100.00
20620;BME280;10469;42.720;23.252;2023-05-08T01:38:31;95071.75;;;11.93;100.00
20620;BME280;10469;42.720;23.252;2023-05-08T01:41:07;95069.53;;;11.90;100.00
20620;BME280;10469;42.720;23.252;2023-05-08T01:43:51;95056.91;;;11.91;100.00
20620;BME280;10469;42.720;23.252;2023-05-08T01:46:25;95058.31;;;11.93;100.00
20620;BME280;10469;42.720;23.252;2023-05-08T01:51:42;95056.81;;;11.74;100.00
20620;BME280;10469;42.720;23.252;2023-05-08T01:54:12;95057.06;;;11.72;100.00
20620;BME280;10469;42.720;23.252;2023-05-08T01:56:42;95049.63;;;11.74;100.00
20620;BME280;10469;42.720;23.252;2023-05-08T01:59:12;95066.63;;;11.92;100.00
20620;BME280;10469;42.720;23.252;2023-05-08T02:01:40;95052.59;;;11.90;100.00
20620;BME280;10469;42.720;23.252;2023-05-08T02:04:07;95064.38;;;12.00;100.00
20620;BME280;10469;42.720;23.252;2023-05-08T02:06:33;95060.91;;;11.76;100.00
20620;BME280;10469;42.720;23.252;2023-05-08T02:09:00;95060.91;;;11.76;100.00
20620;BME280;10469;42.720;23.252;2023-05-08T02:11:28;95068.41;;;11.74;100.00
20620;BME280;10469;42.720;23.252;2023-05-08T02:13:56;95077.16;;;11.70;100.00
20620;BME280;10469;42.720;23.252;2023-05-08T02:16:26;95074.34;;;11.76;100.00
20620;BME280;10469;42.720;23.252;2023-05-08T02:18:54;95067.72;;;11.67;100.00
20620;BME280;10469;42.720;23.252;2023-05-08T02:21:21;95070.41;;;11.67;100.00
20620;BME280;10469;42.720;23.252;2023-05-08T02:23:48;95063.34;;;11.49;100.00
20620;BME280;10469;42.720;23.252;2023-05-08T02:26:15;95064.91;;;11.22;100.00
20620;BME280;10469;42.720;23.252;2023-05-08T02:28:41;95055.94;;;11.04;100.00
20620;BME280;10469;42.720;23.252;2023-05-08T02:31:08;95036.88;;;11.18;100.00
20620;BME280;10469;42.720;23.252;2023-05-08T02:33:37;95077.16;;;11.29;100.00
20620;BME280;10469;42.720;23.252;2023-05-08T02:36:04;95050.44;;;11.11;100.00
20620;BME280;10469;42.720;23.252;2023-05-08T02:38:32;95075.38;;;11.35;100.00
20620;BME280;10469;42.720;23.252;2023-05-08T02:41:01;95078.06;;;11.35;100.00
20620;BME280;10469;42.720;23.252;2023-05-08T02:43:28;95078.91;;;11.36;100.00
20620;BME280;10469;42.720;23.252;2023-05-08T02:46:13;95065.13;;;11.32;100.00
20620;BME280;10469;42.720;23.252;2023-05-08T02:48:50;95077.34;;;11.40;100.00
20620;BME280;10469;42.720;23.252;2023-05-08T02:51:24;95078.75;;;11.42;100.00
20620;BME280;10469;42.720;23.252;2023-05-08T02:53:57;95075.50;;;11.40;100.00
20620;BME280;10469;42.720;23.252;2023-05-08T02:57:00;95084.13;;;11.42;100.00
20620;BME280;10469;42.720;23.252;2023-05-08T02:59:33;95079.66;;;11.48;100.00
20620;BME280;10469;42.720;23.252;2023-05-08T03:02:14;95070.59;;;11.49;100.00
20620;BME280;10469;42.720;23.252;2023-05-08T03:04:50;95061.94;;;11.47;100.00
20620;BME280;10469;42.720;23.252;2023-05-08T03:07:24;95084.31;;;11.64;100.00
20620;BME280;10469;42.720;23.252;2023-05-08T03:09:56;95076.03;;;11.66;100.00
20620;BME280;10469;42.720;23.252;2023-05-08T03:12:23;95074.72;;;11.68;100.00
20620;BME280;10469;42.720;23.252;2023-05-08T03:14:59;95080.16;;;11.45;100.00
20620;BME280;10469;42.720;23.252;2023-05-08T03:17:30;95067.09;;;11.37;100.00
20620;BME280;10469;42.720;23.252;2023-05-08T03:19:59;95064.53;;;11.42;100.00
20620;BME280;10469;42.720;23.252;2023-05-08T03:22:27;95084.31;;;11.64;100.00
20620;BME280;10469;42.720;23.252;2023-05-08T03:24:55;95072.31;;;11.55;100.00
20620;BME280;10469;42.720;23.252;2023-05-08T03:27:23;95077.03;;;11.76;100.00
20620;BME280;10469;42.720;23.252;2023-05-08T03:29:49;95075.41;;;11.75;100.00
20620;BME280;10469;42.720;23.252;2023-05-08T03:32:17;95087.09;;;11.69;100.00
20620;BME280;10469;42.720;23.252;2023-05-08T03:34:44;95084.09;;;11.66;100.00
20620;BME280;10469;42.720;23.252;2023-05-08T03:37:10;95078.84;;;11.59;100.00
20620;BME280;10469;42.720;23.252;2023-05-08T03:39:36;95090.19;;;11.49;100.00
20620;BME280;10469;42.720;23.252;2023-05-08T03:42:01;95085.47;;;11.68;100.00
20620;BME280;10469;42.720;23.252;2023-05-08T03:44:28;95089.75;;;11.81;100.00
20620;BME280;10469;42.720;23.252;2023-05-08T03:46:55;95089.63;;;12.16;100.00
20620;BME280;10469;42.720;23.252;2023-05-08T03:49:24;95086.09;;;11.99;100.00
20620;BME280;10469;42.720;23.252;2023-05-08T03:51:52;95068.69;;;12.01;100.00
20620;BME280;10469;42.720;23.252;2023-05-08T03:54:19;95097.47;;;11.77;100.00
20620;BME280;10469;42.720;23.252;2023-05-08T03:56:50;95065.84;;;11.68;100.00
20620;BME280;10469;42.720;23.252;2023-05-08T03:59:23;95092.16;;;12.06;100.00
20620;BME280;10469;42.720;23.252;2023-05-08T04:04:34;95084.59;;;12.20;100.00
20620;BME280;10469;42.720;23.252;2023-05-08T04:09:58;95091.00;;;12.30;100.00
20620;BME280;10469;42.720;23.252;2023-05-08T04:12:37;95105.84;;;12.67;100.00
20620;BME280;10469;42.720;23.252;2023-05-08T04:15:09;95102.84;;;12.97;100.00
20620;BME280;10469;42.720;23.252;2023-05-08T04:17:52;95109.69;;;13.04;100.00
20620;BME280;10469;42.720;23.252;2023-05-08T04:20:21;95109.38;;;13.01;100.00
20620;BME280;10469;42.720;23.252;2023-05-08T04:22:50;95103.81;;;13.07;100.00
20620;BME280;10469;42.720;23.252;2023-05-08T04:25:18;95104.00;;;12.84;100.00
20620;BME280;10469;42.720;23.252;2023-05-08T04:27:44;95107.91;;;12.93;100.00
20620;BME280;10469;42.720;23.252;2023-05-08T04:30:11;95110.19;;;13.01;100.00
20620;BME280;10469;42.720;23.252;2023-05-08T04:32:37;95106.81;;;13.28;100.00
20620;BME280;10469;42.720;23.252;2023-05-08T04:35:04;95109.97;;;13.42;100.00
20620;BME280;10469;42.720;23.252;2023-05-08T04:37:30;95113.09;;;13.34;100.00
20620;BME280;10469;42.720;23.252;2023-05-08T04:39:56;95083.97;;;13.14;100.00
20620;BME280;10469;42.720;23.252;2023-05-08T04:42:22;95098.44;;;13.24;100.00
20620;BME280;10469;42.720;23.252;2023-05-08T04:44:48;95101.63;;;13.60;100.00
20620;BME280;10469;42.720;23.252;2023-05-08T04:47:14;95099.53;;;13.67;100.00
20620;BME280;10469;42.720;23.252;2023-05-08T04:49:40;95089.00;;;14.10;100.00
20620;BME280;10469;42.720;23.252;2023-05-08T04:52:06;95100.13;;;13.91;100.00
20620;BME280;10469;42.720;23.252;2023-05-08T04:54:32;95082.94;;;13.75;100.00
20620;BME280;10469;42.720;23.252;2023-05-08T04:56:58;95097.53;;;14.01;100.00
20620;BME280;10469;42.720;23.252;2023-05-08T04:59:23;95092.03;;;13.91;100.00
20620;BME280;10469;42.720;23.252;2023-05-08T05:01:50;95093.28;;;14.32;100.00
20620;BME280;10469;42.720;23.252;2023-05-08T05:04:15;95090.34;;;14.34;100.00
20620;BME280;10469;42.720;23.252;2023-05-08T05:06:41;95086.19;;;14.48;100.00
20620;BME280;10469;42.720;23.252;2023-05-08T05:09:07;95083.22;;;14.50;100.00
20620;BME280;10469;42.720;23.252;2023-05-08T05:11:33;95080.06;;;14.58;100.00
20620;BME280;10469;42.720;23.252;2023-05-08T05:13:59;95080.91;;;14.96;100.00
20620;BME280;10469;42.720;23.252;2023-05-08T05:16:24;95075.06;;;15.09;100.00
20620;BME280;10469;42.720;23.252;2023-05-08T05:18:51;95072.84;;;15.01;100.00
20620;BME280;10469;42.720;23.252;2023-05-08T05:21:16;95083.69;;;15.06;100.00
20620;BME280;10469;42.720;23.252;2023-05-08T05:23:42;95077.13;;;14.97;100.00
20620;BME280;10469;42.720;23.252;2023-05-08T05:26:07;95069.06;;;15.02;100.00
20620;BME280;10469;42.720;23.252;2023-05-08T05:28:33;95065.75;;;14.90;100.00
20620;BME280;10469;42.720;23.252;2023-05-08T05:30:59;95076.72;;;15.15;100.00
20620;BME280;10469;42.720;23.252;2023-05-08T05:33:24;95079.03;;;15.39;100.00
20620;BME280;10469;42.720;23.252;2023-05-08T05:35:50;95069.81;;;15.29;100.00
20620;BME280;10469;42.720;23.252;2023-05-08T05:38:16;95083.53;;;15.65;100.00
20620;BME280;10469;42.720;23.252;2023-05-08T05:40:41;95072.50;;;15.77;100.00
20620;BME280;10469;42.720;23.252;2023-05-08T05:43:07;95070.75;;;16.23;100.00
20620;BME280;10469;42.720;23.252;2023-05-08T05:45:32;95078.00;;;16.02;100.00
20620;BME280;10469;42.720;23.252;2023-05-08T05:47:58;95075.09;;;16.19;100.00
20620;BME280;10469;42.720;23.252;2023-05-08T05:50:23;95073.78;;;16.32;100.00
20620;BME280;10469;42.720;23.252;2023-05-08T05:52:51;95060.81;;;16.60;100.00
20620;BME280;10469;42.720;23.252;2023-05-08T05:55:17;95072.06;;;16.05;100.00
20620;BME280;10469;42.720;23.252;2023-05-08T05:57:42;95065.41;;;16.54;100.00
20620;BME280;10469;42.720;23.252;2023-05-08T06:00:08;95068.13;;;16.54;100.00
20620;BME280;10469;42.720;23.252;2023-05-08T06:02:35;95059.47;;;17.23;100.00
20620;BME280;10469;42.720;23.252;2023-05-08T06:05:02;95075.47;;;16.89;100.00
20620;BME280;10469;42.720;23.252;2023-05-08T06:07:28;95060.25;;;17.34;100.00
20620;BME280;10469;42.720;23.252;2023-05-08T06:09:53;95046.94;;;17.43;100.00
20620;BME280;10469;42.720;23.252;2023-05-08T06:12:20;95053.19;;;17.33;100.00
20620;BME280;10469;42.720;23.252;2023-05-08T06:14:46;95050.81;;;17.11;100.00
20620;BME280;10469;42.720;23.252;2023-05-08T06:17:12;95051.88;;;16.64;100.00
20620;BME280;10469;42.720;23.252;2023-05-08T06:19:38;95039.44;;;16.99;100.00
20620;BME280;10469;42.720;23.252;2023-05-08T06:22:03;95063.50;;;17.26;100.00
20620;BME280;10469;42.720;23.252;2023-05-08T06:24:29;95069.63;;;17.88;100.00
20620;BME280;10469;42.720;23.252;2023-05-08T06:26:54;95064.38;;;17.06;100.00
20620;BME280;10469;42.720;23.252;2023-05-08T06:29:23;95067.06;;;16.80;100.00
20620;BME280;10469;42.720;23.252;2023-05-08T06:31:49;95059.44;;;16.57;100.00
20620;BME280;10469;42.720;23.252;2023-05-08T06:34:15;95058.38;;;17.19;100.00
20620;BME280;10469;42.720;23.252;2023-05-08T06:36:40;95056.72;;;17.18;100.00
20620;BME280;10469;42.720;23.252;2023-05-08T06:39:06;95071.13;;;16.93;100.00
20620;BME280;10469;42.720;23.252;2023-05-08T06:41:32;95046.72;;;18.53;100.00
20620;BME280;10469;42.720;23.252;2023-05-08T06:43:57;95065.38;;;19.34;100.00
20620;BME280;10469;42.720;23.252;2023-05-08T06:46:23;95047.31;;;18.45;100.00
20620;BME280;10469;42.720;23.252;2023-05-08T06:48:48;95048.50;;;18.29;100.00
20620;BME280;10469;42.720;23.252;2023-05-08T06:51:14;95066.81;;;18.03;100.00
20620;BME280;10469;42.720;23.252;2023-05-08T06:53:40;95062.22;;;18.92;100.00
20620;BME280;10469;42.720;23.252;2023-05-08T06:56:06;95053.22;;;18.58;100.00
20620;BME280;10469;42.720;23.252;2023-05-08T06:58:31;95061.03;;;18.20;100.00
20620;BME280;10469;42.720;23.252;2023-05-08T07:01:00;95065.25;;;19.73;100.00
20620;BME280;10469;42.720;23.252;2023-05-08T07:03:26;95068.56;;;18.83;100.00
20620;BME280;10469;42.720;23.252;2023-05-08T07:05:52;95072.81;;;18.49;100.00
20620;BME280;10469;42.720;23.252;2023-05-08T07:08:18;95069.91;;;17.71;100.00
20620;BME280;10469;42.720;23.252;2023-05-08T07:10:44;95079.44;;;17.63;100.00
20620;BME280;10469;42.720;23.252;2023-05-08T07:13:09;95053.81;;;18.89;100.00
20620;BME280;10469;42.720;23.252;2023-05-08T07:15:35;95072.31;;;18.42;100.00
20620;BME280;10469;42.720;23.252;2023-05-08T07:18:03;95077.50;;;17.74;100.00
20620;BME280;10469;42.720;23.252;2023-05-08T07:20:29;95066.75;;;18.13;100.00
20620;BME280;10469;42.720;23.252;2023-05-08T07:22:54;95058.25;;;18.30;100.00
20620;BME280;10469;42.720;23.252;2023-05-08T07:25:20;95067.53;;;17.54;100.00
20620;BME280;10469;42.720;23.252;2023-05-08T07:27:45;95061.00;;;19.03;100.00
20620;BME280;10469;42.720;23.252;2023-05-08T07:30:11;95063.50;;;19.00;100.00
20620;BME280;10469;42.720;23.252;2023-05-08T07:32:37;95047.53;;;19.99;99.49
20620;BME280;10469;42.720;23.252;2023-05-08T07:35:04;95071.25;;;20.61;96.84
20620;BME280;10469;42.720;23.252;2023-05-08T07:37:32;95060.84;;;20.01;100.00
20620;BME280;10469;42.720;23.252;2023-05-08T07:39:57;95058.84;;;19.88;100.00
20620;BME280;10469;42.720;23.252;2023-05-08T07:42:23;95066.34;;;19.72;100.00
20620;BME280;10469;42.720;23.252;2023-05-08T07:44:49;95078.22;;;19.81;100.00
20620;BME280;10469;42.720;23.252;2023-05-08T07:47:14;95080.78;;;20.96;100.00
20620;BME280;10469;42.720;23.252;2023-05-08T07:49:40;95071.31;;;20.74;97.49
20620;BME280;10469;42.720;23.252;2023-05-08T07:52:06;95067.91;;;21.15;97.51
20620;BME280;10469;42.720;23.252;2023-05-08T07:54:32;95074.22;;;20.21;100.00
20620;BME280;10469;42.720;23.252;2023-05-08T07:56:57;95062.06;;;20.33;100.00
20620;BME280;10469;42.720;23.252;2023-05-08T07:59:23;95077.75;;;21.16;95.04
20620;BME280;10469;42.720;23.252;2023-05-08T08:01:50;95065.28;;;21.10;95.21
20620;BME280;10469;42.720;23.252;2023-05-08T08:04:15;95087.63;;;21.45;92.39
20620;BME280;10469;42.720;23.252;2023-05-08T08:06:41;95061.09;;;20.23;98.47
20620;BME280;10469;42.720;23.252;2023-05-08T08:09:07;95078.44;;;20.09;100.00
20620;BME280;10469;42.720;23.252;2023-05-08T08:11:32;95082.41;;;19.73;100.00
20620;BME280;10469;42.720;23.252;2023-05-08T08:13:58;95062.81;;;19.71;100.00
20620;BME280;10469;42.720;23.252;2023-05-08T08:16:24;95071.50;;;20.21;100.00
20620;BME280;10469;42.720;23.252;2023-05-08T08:18:49;95064.34;;;19.83;100.00
20620;BME280;10469;42.720;23.252;2023-05-08T08:21:17;95054.03;;;20.98;99.64
20620;BME280;10469;42.720;23.252;2023-05-08T08:23:43;95057.22;;;20.29;100.00
20620;BME280;10469;42.720;23.252;2023-05-08T08:26:09;95072.22;;;19.55;100.00
20620;BME280;10469;42.720;23.252;2023-05-08T08:28:34;95068.34;;;19.66;100.00
20620;BME280;10469;42.720;23.252;2023-05-08T08:31:00;95055.16;;;20.40;100.00
20620;BME280;10469;42.720;23.252;2023-05-08T08:33:29;95048.16;;;20.34;100.00
20620;BME280;10469;42.720;23.252;2023-05-08T08:35:55;95054.28;;;21.15;100.00
20620;BME280;10469;42.720;23.252;2023-05-08T08:38:20;95046.59;;;20.85;100.00
20620;BME280;10469;42.720;23.252;2023-05-08T08:40:46;95034.41;;;20.63;100.00
20620;BME280;10469;42.720;23.252;2023-05-08T08:43:12;95043.78;;;19.71;100.00
20620;BME280;10469;42.720;23.252;2023-05-08T08:45:38;95039.94;;;20.39;100.00
20620;BME280;10469;42.720;23.252;2023-05-08T08:48:09;95037.84;;;20.31;100.00
20620;BME280;10469;42.720;23.252;2023-05-08T08:50:40;95035.50;;;21.88;99.49
20620;BME280;10469;42.720;23.252;2023-05-08T08:53:12;95028.91;;;21.34;100.00
20620;BME280;10469;42.720;23.252;2023-05-08T08:55:43;95018.28;;;20.67;100.00
20620;BME280;10469;42.720;23.252;2023-05-08T09:01:01;95018.34;;;20.43;100.00
20620;BME280;10469;42.720;23.252;2023-05-08T09:03:32;95013.69;;;19.87;100.00
20620;BME280;10469;42.720;23.252;2023-05-08T09:06:01;95010.59;;;19.45;100.00
20620;BME280;10469;42.720;23.252;2023-05-08T09:08:27;95002.38;;;19.26;100.00
20620;BME280;10469;42.720;23.252;2023-05-08T09:10:54;94981.38;;;19.56;100.00
20620;BME280;10469;42.720;23.252;2023-05-08T09:13:21;94991.72;;;19.54;100.00
20620;BME280;10469;42.720;23.252;2023-05-08T09:15:47;94975.19;;;19.74;100.00
20620;BME280;10469;42.720;23.252;2023-05-08T09:18:15;94979.78;;;20.36;100.00
20620;BME280;10469;42.720;23.252;2023-05-08T09:20:41;94984.59;;;20.76;100.00
20620;BME280;10469;42.720;23.252;2023-05-08T09:23:06;94976.72;;;20.75;100.00
20620;BME280;10469;42.720;23.252;2023-05-08T09:25:46;94984.91;;;20.75;100.00
20620;BME280;10469;42.720;23.252;2023-05-08T09:30:56;95012.97;;;20.19;100.00
20620;BME280;10469;42.720;23.252;2023-05-08T09:33:24;94997.59;;;20.47;100.00
20620;BME280;10469;42.720;23.252;2023-05-08T09:35:50;94975.94;;;20.37;100.00
20620;BME280;10469;42.720;23.252;2023-05-08T09:41:13;95018.00;;;21.34;100.00
20620;BME280;10469;42.720;23.252;2023-05-08T09:43:40;95013.25;;;21.67;100.00
20620;BME280;10469;42.720;23.252;2023-05-08T09:46:19;95018.03;;;21.15;100.00
20620;BME280;10469;42.720;23.252;2023-05-08T09:48:53;95001.47;;;20.78;100.00
20620;BME280;10469;42.720;23.252;2023-05-08T09:51:19;95003.19;;;20.74;100.00
20620;BME280;10469;42.720;23.252;2023-05-08T09:53:46;94999.06;;;21.23;100.00
20620;BME280;10469;42.720;23.252;2023-05-08T09:56:11;94999.19;;;22.28;100.00
20620;BME280;10469;42.720;23.252;2023-05-08T09:58:41;94987.41;;;21.04;100.00
20620;BME280;10469;42.720;23.252;2023-05-08T10:01:08;94986.25;;;20.40;100.00
20620;BME280;10469;42.720;23.252;2023-05-08T10:03:51;94985.88;;;20.98;100.00
20620;BME280;10469;42.720;23.252;2023-05-08T10:06:17;94991.06;;;21.13;100.00
20620;BME280;10469;42.720;23.252;2023-05-08T10:08:43;94989.03;;;21.38;100.00
20620;BME280;10469;42.720;23.252;2023-05-08T10:11:14;94983.69;;;21.14;100.00
20620;BME280;10469;42.720;23.252;2023-05-08T10:13:46;94985.97;;;20.93;100.00
20620;BME280;10469;42.720;23.252;2023-05-08T10:16:16;94991.16;;;20.75;100.00
20620;BME280;10469;42.720;23.252;2023-05-08T10:18:48;94974.00;;;21.08;100.00
20620;BME280;10469;42.720;23.252;2023-05-08T10:21:15;94981.13;;;21.50;100.00
20620;BME280;10469;42.720;23.252;2023-05-08T10:23:42;94981.66;;;21.05;100.00
20620;BME280;10469;42.720;23.252;2023-05-08T10:26:15;94976.38;;;21.69;100.00
20620;BME280;10469;42.720;23.252;2023-05-08T10:28:49;94949.41;;;21.40;100.00
20620;BME280;10469;42.720;23.252;2023-05-08T10:31:18;94966.63;;;21.22;100.00
20620;BME280;10469;42.720;23.252;2023-05-08T10:33:49;94965.66;;;21.32;100.00
20620;BME280;10469;42.720;23.252;2023-05-08T10:36:16;94968.75;;;22.80;100.00
20620;BME280;10469;42.720;23.252;2023-05-08T10:38:42;94962.44;;;24.73;94.00
20620;BME280;10469;42.720;23.252;2023-05-08T10:41:09;94946.97;;;24.60;86.10
20620;BME280;10469;42.720;23.252;2023-05-08T10:43:35;94968.84;;;24.08;89.11
20620;BME280;10469;42.720;23.252;2023-05-08T10:52:22;94954.09;;;24.44;81.14
20620;BME280;10469;42.720;23.252;2023-05-08T10:57:29;94927.97;;;25.28;76.82
20620;BME280;10469;42.720;23.252;2023-05-08T10:59:56;94941.28;;;24.91;81.55
20620;BME280;10469;42.720;23.252;2023-05-08T11:02:29;94941.28;;;24.22;83.56
20620;BME280;10469;42.720;23.252;2023-05-08T11:05:16;94927.13;;;24.72;74.57
20620;BME280;10469;42.720;23.252;2023-05-08T11:07:58;94918.25;;;24.06;84.74
20620;BME280;10469;42.720;23.252;2023-05-08T11:10:30;94925.28;;;25.02;80.27
20620;BME280;10469;42.720;23.252;2023-05-08T11:13:03;94902.59;;;28.01;65.94
20620;BME280;10469;42.720;23.252;2023-05-08T11:15:39;94898.00;;;26.54;64.09
20620;BME280;10469;42.720;23.252;2023-05-08T11:18:07;94895.84;;;28.11;58.93
20620;BME280;10469;42.720;23.252;2023-05-08T11:20:41;94891.94;;;28.12;56.74
20620;BME280;10469;42.720;23.252;2023-05-08T11:23:33;94903.06;;;23.34;79.69
20620;BME280;10469;42.720;23.252;2023-05-08T11:26:03;94900.88;;;24.45;77.59
20620;BME280;10469;42.720;23.252;2023-05-08T11:31:08;94895.41;;;25.56;73.38
20620;BME280;10469;42.720;23.252;2023-05-08T11:33:34;94880.03;;;26.14;66.18
20620;BME280;10469;42.720;23.252;2023-05-08T11:36:20;94883.25;;;27.73;62.18
20620;BME280;10469;42.720;23.252;2023-05-08T11:39:07;94878.06;;;26.36;65.95
20620;BME280;10469;42.720;23.252;2023-05-08T11:41:34;94862.66;;;25.04;70.63
20620;BME280;10469;42.720;23.252;2023-05-08T11:46:59;94861.41;;;24.93;72.20
20620;BME280;10469;42.720;23.252;2023-05-08T11:49:25;94859.59;;;23.98;75.19
20620;BME280;10469;42.720;23.252;2023-05-08T11:51:52;94861.75;;;23.61;81.69
20620;BME280;10469;42.720;23.252;2023-05-08T11:54:22;94865.47;;;23.57;78.85
20620;BME280;10469;42.720;23.252;2023-05-08T11:56:52;94856.88;;;23.32;81.21
20620;BME280;10469;42.720;23.252;2023-05-08T11:59:19;94849.91;;;23.17;82.33
20620;BME280;10469;42.720;23.252;2023-05-08T12:01:48;94848.84;;;23.53;80.75
20620;BME280;10469;42.720;23.252;2023-05-08T12:04:14;94849.97;;;23.43;79.71
20620;BME280;10469;42.720;23.252;2023-05-08T12:06:40;94832.84;;;23.77;82.17
20620;BME280;10469;42.720;23.252;2023-05-08T12:09:17;94853.72;;;23.56;81.24
20620;BME280;10469;42.720;23.252;2023-05-08T12:11:43;94845.69;;;23.02;81.96
20620;BME280;10469;42.720;23.252;2023-05-08T12:14:12;94844.94;;;23.19;80.69
20620;BME280;10469;42.720;23.252;2023-05-08T12:16:41;94850.38;;;23.11;83.35
20620;BME280;10469;42.720;23.252;2023-05-08T12:19:11;94846.34;;;23.74;82.16
20620;BME280;10469;42.720;23.252;2023-05-08T12:21:38;94840.63;;;23.44;81.18
20620;BME280;10469;42.720;23.252;2023-05-08T12:24:09;94830.31;;;23.24;79.85
20620;BME280;10469;42.720;23.252;2023-05-08T12:26:36;94832.13;;;23.46;82.06
20620;BME280;10469;42.720;23.252;2023-05-08T12:29:06;94831.63;;;23.52;80.46
20620;BME280;10469;42.720;23.252;2023-05-08T12:31:34;94837.31;;;24.34;77.26
20620;BME280;10469;42.720;23.252;2023-05-08T12:34:02;94835.34;;;23.48;81.16
20620;BME280;10469;42.720;23.252;2023-05-08T12:36:28;94818.38;;;23.20;81.14
20620;BME280;10469;42.720;23.252;2023-05-08T12:39:14;94833.03;;;22.84;82.93
20620;BME280;10469;42.720;23.252;2023-05-08T12:41:50;94826.09;;;22.87;82.14
20620;BME280;10469;42.720;23.252;2023-05-08T12:44:21;94833.34;;;23.22;83.45
20620;BME280;10469;42.720;23.252;2023-05-08T12:47:05;94820.09;;;22.98;78.58
20620;BME280;10469;42.720;23.252;2023-05-08T12:49:31;94813.50;;;22.68;80.32
20620;BME280;10469;42.720;23.252;2023-05-08T12:54:36;94815.78;;;23.89;70.20
20620;BME280;10469;42.720;23.252;2023-05-08T12:57:10;94803.28;;;23.40;69.78
20620;BME280;10469;42.720;23.252;2023-05-08T12:59:36;94831.09;;;23.24;70.82
20620;BME280;10469;42.720;23.252;2023-05-08T13:02:01;94822.34;;;23.05;75.58
20620;BME280;10469;42.720;23.252;2023-05-08T13:04:28;94821.72;;;23.65;70.92
20620;BME280;10469;42.720;23.252;2023-05-08T13:06:57;94817.31;;;23.56;74.22
20620;BME280;10469;42.720;23.252;2023-05-08T13:09:22;94813.13;;;22.92;78.88
20620;BME280;10469;42.720;23.252;2023-05-08T13:11:48;94797.34;;;22.58;82.62
20620;BME280;10469;42.720;23.252;2023-05-08T13:14:14;94829.34;;;23.28;81.17
20620;BME280;10469;42.720;23.252;2023-05-08T13:16:46;94827.41;;;22.89;83.90
20620;BME280;10469;42.720;23.252;2023-05-08T13:19:16;94835.13;;;22.56;88.94
20620;BME280;10469;42.720;23.252;2023-05-08T13:21:42;94837.16;;;22.42;90.07
20620;BME280;10469;42.720;23.252;2023-05-08T13:24:15;94850.25;;;21.59;100.00
20620;BME280;10469;42.720;23.252;2023-05-08T13:26:41;94864.78;;;20.71;100.00
20620;BME280;10469;42.720;23.252;2023-05-08T13:29:07;94877.72;;;20.66;100.00
20620;BME280;10469;42.720;23.252;2023-05-08T13:31:32;94878.72;;;20.56;100.00
20620;BME280;10469;42.720;23.252;2023-05-08T13:33:58;94885.31;;;20.17;100.00